Aviation Digital Data Service (ADDS)

Output produced by METARs form (1202 UTC 26 March 2019)
found at http://www.aviationweather.gov/metar/data/
 
FQBR 261100Z 15011KT 9999 FEW025 30/24 Q1012
TAF FQBR 261000Z 2612/2718 10012KT 9999 SCT020 TX31/2613Z TN24/2703Z 
     BECMG 2618/2620 20010KT 
     BECMG 2712/2714 14010G20KT
       
FQCH 261200Z 15010KT 9999 BKN020 30/18 Q1018
TAF FQCH 261000Z 2612/2712 16012KT 9999 SCT020 TX29/2613Z TN18/2703Z 
     BECMG 2618/2620 09008KT 
     BECMG 2700/2702 19008KT
       
FQIN 261100Z 24004KT 9999 FEW020 SCT080 33/19 Q1013
TAF FQIN 261000Z 2612/2712 16012KT 9999 BKN020 TX30/2613Z TN23/2703Z 
     BECMG 2618/2620 22010KT
       
TAF FQLC 261000Z 2612/2712 09012KT 9999 BKN015 FEW020CB TX25/2613Z TN18/2703Z 
     PROB30 
     TEMPO 2612/2618 4000 TSRA BKN010 
     BECMG 2620/2622 VRB02KT 
     BECMG 2706/2708 02008KT
       
FQMA 261200Z 16014KT 9999 SCT015 BKN025 28/20 Q1017 NOSIG
TAF FQMA 261000Z 2612/2718 15010G20KT 9999 SCT020 TX31/2613Z TN24/2703Z 
     BECMG 2618/2620 22012KT 
     BECMG 2712/2714 15012KT
       
FQNC 261200Z 14008KT 9999 SCT020 31/24 Q1010
TAF FQNC 261000Z 2612/2712 16012KT 9999 SCT020 TX31/2613Z TN23/2703Z 
     BECMG 2618/2620 23008KT
       
FQNP 261100Z 24003KT 9999 BKN020 30/23 Q1013
TAF FQNP 261000Z 2612/2718 15012KT 9999 BKN020 TX31/2613Z TN23/2703Z 
     BECMG 2620/2622 22008KT 
     BECMG 2712/2714 16012KT
       
FQPB 261100Z 12008KT 9999 FEW020 FEW025CB BKN/// 31/25 Q1011 RMK CB TO N/NW/W
TAF FQPB 261000Z 2612/2712 09012KT 9999 BKN020 FEW025CB TX32/2613Z TN25/2703Z 
     PROB30 
     TEMPO 2612/2618 5000 -TSRA BKN015 
     BECMG 2620/2622 19008KT
       
FQQL 261200Z 20008KT 9999 FEW018 32/21 Q1011
TAF FQQL 261000Z 2612/2712 16012KT 9999 SCT020 TX33/2613Z TN24/2703Z 
     BECMG 2620/2622 VRB02KT 
     BECMG 2704/2706 25008KT
       
FQTT 261200Z 19008KT 150V250 9999 SCT020 34/22 Q1011
TAF FQTT 261000Z 2612/2712 12012KT 9999 FEW020 TX34/2613Z TN22/2703Z 
     BECMG 2620/2622 VRB02KT 
     BECMG 2706/2708 19008KT
       
FQVL 261100Z 11006KT 9999 SCT020 30/26 Q1013
TAF FQVL 261000Z 2612/2712 13012KT 9999 BKN020 TX31/2613Z TN23/2703Z 
     BECMG 2618/2620 20014KT